Time;durP1;ratioP1;P1;durP2;ratioP2;P2;SDS_P1;SDS_P2;PMS_P1;PMS_P2;Temp;Humidity;BMP_temperature;BMP_pressure;BME280_temperature;BME280_humidity;BME280_pressure;Samples;Min_cycle;Max_cycle;Signal;HPM_P1;HPM_P2
2023/02/25 00:00:42;;;;;;;;;;;;;;;21.85;25.23;97283.16;5060986;28;922;-83
2023/02/25 00:03:08;;;;;;;;;;;;;;;21.95;25.22;97280.38;5077430;28;929;-83
2023/02/25 00:05:37;;;;;;;;;;;;;;;21.97;24.98;97280.72;5060958;28;828;-83
2023/02/25 00:08:02;;;;;;;;;;;;;;;21.69;25.51;97272.06;5077528;28;1131;-83
2023/02/25 00:10:28;;;;;;;;;;;;;;;21.57;25.55;97261.63;5060674;28;1193;-83
2023/02/25 00:12:55;;;;;;;;;;;;;;;21.48;25.73;97264.38;5044632;28;1886;-82
2023/02/25 00:15:20;;;;;;;;;;;;;;;22.10;25.10;97258.72;5077044;28;940;-83
2023/02/25 00:17:47;;;;;;;;;;;;;;;22.16;24.78;97262.53;5057048;28;872;-83
2023/02/25 00:20:13;;;;;;;;;;;;;;;22.26;24.85;97267.00;5056697;28;951;-83
2023/02/25 00:22:38;;;;;;;;;;;;;;;22.30;24.46;97261.97;5057174;28;892;-83
2023/02/25 00:25:04;;;;;;;;;;;;;;;21.92;25.20;97253.00;5056814;28;949;-83
2023/02/25 00:27:29;;;;;;;;;;;;;;;21.56;25.78;97251.53;5056747;28;832;-83
2023/02/25 00:29:55;;;;;;;;;;;;;;;21.76;25.57;97242.66;5036605;28;975;-83
2023/02/25 00:32:20;;;;;;;;;;;;;;;22.11;24.91;97246.16;5036880;28;1909;-83
2023/02/25 00:34:46;;;;;;;;;;;;;;;22.32;24.51;97239.59;5036710;28;845;-83
2023/02/25 00:37:11;;;;;;;;;;;;;;;22.31;24.48;97246.53;5020346;28;1032;-83
2023/02/25 00:39:43;;;;;;;;;;;;;;;21.89;25.14;97236.91;5036882;28;794;-82
2023/02/25 00:42:09;;;;;;;;;;;;;;;21.42;25.79;97232.28;5036472;28;860;-83
2023/02/25 00:44:35;;;;;;;;;;;;;;;21.33;26.03;97230.16;5020305;28;830;-83
2023/02/25 00:47:01;;;;;;;;;;;;;;;22.14;24.78;97231.06;5020220;28;1349;-83
2023/02/25 00:49:26;;;;;;;;;;;;;;;22.30;24.80;97227.97;5051489;28;1122;-83
2023/02/25 00:51:52;;;;;;;;;;;;;;;22.15;24.85;97224.13;5039530;28;811;-83
2023/02/25 00:54:17;;;;;;;;;;;;;;;21.83;25.22;97219.75;5040003;28;2003;-82
2023/02/25 00:56:43;;;;;;;;;;;;;;;21.49;25.66;97220.66;5056380;28;976;-82
2023/02/25 00:59:08;;;;;;;;;;;;;;;21.59;25.56;97222.28;5056366;28;946;-82
2023/02/25 01:01:36;;;;;;;;;;;;;;;22.02;25.00;97218.56;5073578;28;853;-82
2023/02/25 01:04:02;;;;;;;;;;;;;;;22.06;25.32;97218.41;5061044;28;1160;-83
2023/02/25 01:06:27;;;;;;;;;;;;;;;22.21;24.94;97212.97;5077179;28;1211;-83
2023/02/25 01:08:53;;;;;;;;;;;;;;;21.75;25.37;97199.41;5060726;28;1126;-83
2023/02/25 01:11:20;;;;;;;;;;;;;;;21.61;25.56;97200.00;5077271;28;1439;-83
2023/02/25 01:13:46;;;;;;;;;;;;;;;21.99;25.17;97198.88;5060738;28;2243;-83
2023/02/25 01:16:12;;;;;;;;;;;;;;;22.19;24.87;97196.44;5060703;28;1192;-82
2023/02/25 01:18:39;;;;;;;;;;;;;;;22.29;24.92;97197.25;5061177;28;1174;-82
2023/02/25 01:21:05;;;;;;;;;;;;;;;22.03;24.79;97185.38;5078230;28;842;-83
2023/02/25 01:23:31;;;;;;;;;;;;;;;21.82;25.27;97187.03;5060509;28;1157;-82
2023/02/25 01:25:56;;;;;;;;;;;;;;;21.54;25.65;97183.25;5077069;28;928;-81
2023/02/25 01:28:22;;;;;;;;;;;;;;;21.99;25.31;97184.72;5078712;28;918;-82
2023/02/25 01:30:50;;;;;;;;;;;;;;;22.12;24.83;97176.09;5060353;28;929;-83
2023/02/25 01:33:18;;;;;;;;;;;;;;;22.22;24.67;97175.66;5060964;28;1926;-83
2023/02/25 01:35:45;;;;;;;;;;;;;;;21.76;25.42;97177.53;5076926;28;1122;-83
2023/02/25 01:38:10;;;;;;;;;;;;;;;21.64;25.54;97182.06;5077009;28;1101;-83
2023/02/25 01:40:36;;;;;;;;;;;;;;;21.51;25.60;97172.91;5076772;28;1227;-83
2023/02/25 01:43:03;;;;;;;;;;;;;;;22.03;24.92;97174.03;5077740;28;819;-83
2023/02/25 01:45:29;;;;;;;;;;;;;;;22.09;25.13;97167.28;5076642;28;782;-83
2023/02/25 01:48:02;;;;;;;;;;;;;;;22.32;24.79;97168.75;5078021;28;815;-83
2023/02/25 01:50:30;;;;;;;;;;;;;;;21.71;25.38;97164.81;5059900;28;1184;-83
2023/02/25 01:52:56;;;;;;;;;;;;;;;21.45;25.66;97169.06;5076563;28;1976;-83
2023/02/25 01:55:21;;;;;;;;;;;;;;;21.88;25.31;97173.81;5076221;28;1110;-83
2023/02/25 01:57:48;;;;;;;;;;;;;;;22.05;25.01;97171.50;5076250;28;814;-82
2023/02/25 02:00:16;;;;;;;;;;;;;;;22.38;24.53;97170.97;5076372;28;1230;-83
2023/02/25 02:02:45;;;;;;;;;;;;;;;21.72;25.50;97165.59;5075408;28;906;-83
2023/02/25 02:05:11;;;;;;;;;;;;;;;21.67;25.33;97169.81;5059690;28;1241;-82
2023/02/25 02:07:36;;;;;;;;;;;;;;;21.38;25.95;97180.69;5076312;28;1386;-82
2023/02/25 02:10:02;;;;;;;;;;;;;;;21.94;25.22;97179.66;5076320;28;1097;-83
2023/02/25 02:12:33;;;;;;;;;;;;;;;22.23;24.99;97171.59;5075831;28;1910;-83
2023/02/25 02:14:59;;;;;;;;;;;;;;;22.39;24.84;97172.56;5075838;28;949;-83
2023/02/25 02:17:32;;;;;;;;;;;;;;;21.98;25.21;97166.94;5058030;28;1288;-83
2023/02/25 02:20:01;;;;;;;;;;;;;;;21.72;25.40;97159.94;5057785;28;1004;-82
2023/02/25 02:22:40;;;;;;;;;;;;;;;21.63;25.80;97169.16;5057958;28;1246;-82
2023/02/25 02:25:11;;;;;;;;;;;;;;;22.24;24.81;97178.03;5058017;28;1376;-83
2023/02/25 02:27:55;;;;;;;;;;;;;;;22.22;24.99;97172.81;5074655;28;1073;-82
2023/02/25 02:30:29;;;;;;;;;;;;;;;21.77;25.39;97173.47;5074469;28;1219;-82
2023/02/25 02:33:17;;;;;;;;;;;;;;;21.45;25.78;97169.06;5074133;28;1905;-83
2023/02/25 02:35:42;;;;;;;;;;;;;;;21.42;26.21;97170.00;5057741;28;915;-82
2023/02/25 02:38:12;;;;;;;;;;;;;;;21.92;25.59;97163.16;5074307;28;1254;-83
2023/02/25 02:40:40;;;;;;;;;;;;;;;21.91;25.47;97155.09;5057986;28;928;-83
2023/02/25 02:43:13;;;;;;;;;;;;;;;22.34;24.91;97160.59;5041246;28;1194;-83
2023/02/25 02:45:48;;;;;;;;;;;;;;;21.80;25.48;97149.88;5041410;28;1170;-83
2023/02/25 02:48:33;;;;;;;;;;;;;;;21.66;25.54;97150.44;5077589;28;1145;-83
2023/02/25 02:51:00;;;;;;;;;;;;;;;21.65;25.69;97155.31;5077610;28;827;-83
2023/02/25 02:53:36;;;;;;;;;;;;;;;22.23;25.13;97148.94;5077650;28;1983;-82
2023/02/25 02:56:02;;;;;;;;;;;;;;;22.29;24.74;97144.19;5061005;28;1326;-83
2023/02/25 02:58:38;;;;;;;;;;;;;;;22.42;24.44;97143.25;5074614;28;1024;-83
2023/02/25 03:01:14;;;;;;;;;;;;;;;21.75;25.38;97139.16;5075616;28;790;-82
2023/02/25 03:03:41;;;;;;;;;;;;;;;21.72;25.72;97132.41;5058656;28;1279;-83
2023/02/25 03:06:14;;;;;;;;;;;;;;;21.74;25.56;97141.19;5075308;28;1036;-83
2023/02/25 03:08:53;;;;;;;;;;;;;;;22.05;25.14;97143.19;5058974;28;1227;-83
2023/02/25 03:11:19;;;;;;;;;;;;;;;22.21;24.86;97137.25;5042744;28;1146;-83
2023/02/25 03:13:45;;;;;;;;;;;;;;;21.76;25.49;97138.72;5074196;28;1909;-82
2023/02/25 03:16:11;;;;;;;;;;;;;;;21.66;25.55;97139.94;5058663;28;1280;-83
2023/02/25 03:18:39;;;;;;;;;;;;;;;21.40;26.09;97136.53;5058629;28;1270;-83
2023/02/25 03:21:12;;;;;;;;;;;;;;;22.01;25.41;97132.00;5058881;28;1133;-83
2023/02/25 03:23:37;;;;;;;;;;;;;;;22.18;24.87;97141.03;5042139;28;1340;-82
2023/02/25 03:26:22;;;;;;;;;;;;;;;22.28;24.85;97131.31;5075156;28;878;-83
2023/02/25 03:28:51;;;;;;;;;;;;;;;21.65;25.59;97132.66;5074647;28;1294;-83
2023/02/25 03:31:20;;;;;;;;;;;;;;;21.62;25.57;97133.63;5075374;28;1125;-83
2023/02/25 03:33:54;;;;;;;;;;;;;;;21.81;25.69;97135.25;5077239;28;1981;-83
2023/02/25 03:36:38;;;;;;;;;;;;;;;22.07;25.06;97135.00;5077432;28;1133;-83
2023/02/25 03:39:05;;;;;;;;;;;;;;;22.25;24.74;97135.06;5094121;28;878;-83
2023/02/25 03:41:34;;;;;;;;;;;;;;;22.43;24.49;97130.66;5060402;28;921;-83
2023/02/25 03:43:59;;;;;;;;;;;;;;;21.69;25.41;97130.50;5060469;28;1176;-83
2023/02/25 03:46:25;;;;;;;;;;;;;;;21.74;25.51;97118.56;5077344;28;1112;-83
2023/02/25 03:48:51;;;;;;;;;;;;;;;21.65;25.87;97118.50;5077340;28;1212;-82
2023/02/25 03:51:17;;;;;;;;;;;;;;;22.02;25.10;97121.44;5060387;28;1054;-83
2023/02/25 03:53:44;;;;;;;;;;;;;;;22.22;24.84;97119.00;5077120;28;1991;-83
2023/02/25 03:56:13;;;;;;;;;;;;;;;22.21;24.81;97117.41;5077176;28;1227;-83
2023/02/25 03:58:41;;;;;;;;;;;;;;;21.74;25.44;97124.22;5076918;28;1078;-83
2023/02/25 04:01:17;;;;;;;;;;;;;;;21.79;25.50;97115.09;5077082;28;1129;-82
2023/02/25 04:03:42;;;;;;;;;;;;;;;21.59;25.62;97118.34;5072172;28;1140;-83
2023/02/25 04:06:10;;;;;;;;;;;;;;;22.08;25.04;97119.59;5037226;28;1157;-83
2023/02/25 04:08:36;;;;;;;;;;;;;;;22.21;24.89;97117.41;5020214;28;1192;-83
2023/02/25 04:11:01;;;;;;;;;;;;;;;22.18;24.81;97112.72;5036922;28;1145;-83
2023/02/25 04:13:27;;;;;;;;;;;;;;;21.66;25.62;97110.81;5036967;28;1956;-83
2023/02/25 04:15:52;;;;;;;;;;;;;;;21.56;25.79;97110.00;5053152;28;878;-83
2023/02/25 04:18:18;;;;;;;;;;;;;;;21.40;25.84;97110.25;5036618;28;1280;-83
2023/02/25 04:20:43;;;;;;;;;;;;;;;21.92;25.43;97105.72;5053479;28;1110;-83
2023/02/25 04:23:12;;;;;;;;;;;;;;;22.28;24.58;97111.47;5053630;28;1271;-82
2023/02/25 04:25:38;;;;;;;;;;;;;;;22.24;24.73;97105.16;5054627;28;834;-83
2023/02/25 04:28:04;;;;;;;;;;;;;;;22.36;24.78;97107.03;5056935;28;798;-83
2023/02/25 04:30:29;;;;;;;;;;;;;;;22.09;25.14;97104.16;5056809;28;904;-82
2023/02/25 04:32:54;;;;;;;;;;;;;;;21.89;25.22;97098.94;5056962;28;1965;-83
2023/02/25 04:35:20;;;;;;;;;;;;;;;21.63;25.62;97101.22;5073148;28;907;-83
2023/02/25 04:37:45;;;;;;;;;;;;;;;21.32;25.99;97104.88;5079148;28;790;-83
2023/02/25 04:40:18;;;;;;;;;;;;;;;21.89;25.27;97095.31;5079099;28;750;-82
2023/02/25 04:42:43;;;;;;;;;;;;;;;21.99;25.21;97096.91;5079488;28;875;-83
2023/02/25 04:45:09;;;;;;;;;;;;;;;22.12;25.05;97089.06;5078826;28;929;-82
2023/02/25 04:47:35;;;;;;;;;;;;;;;21.75;25.31;97094.63;5079017;28;822;-83
2023/02/25 04:50:00;;;;;;;;;;;;;;;21.63;25.77;97095.56;5078661;28;976;-83
2023/02/25 04:52:26;;;;;;;;;;;;;;;21.65;25.73;97100.75;5078499;28;1902;-83
2023/02/25 04:54:51;;;;;;;;;;;;;;;22.23;24.81;97099.97;5078675;28;914;-83
2023/02/25 04:57:16;;;;;;;;;;;;;;;22.26;24.68;97093.34;5078599;28;1180;-81
2023/02/25 04:59:42;;;;;;;;;;;;;;;22.55;24.37;97101.38;5079081;28;794;-83
2023/02/25 05:02:07;;;;;;;;;;;;;;;21.94;25.09;97094.69;5078697;28;887;-83
2023/02/25 05:04:33;;;;;;;;;;;;;;;21.74;25.30;97095.91;5077565;28;766;-83
2023/02/25 05:06:59;;;;;;;;;;;;;;;21.47;26.16;97098.66;5078498;28;1539;-83
2023/02/25 05:09:25;;;;;;;;;;;;;;;22.08;25.01;97105.44;5078287;28;910;-83
2023/02/25 05:11:50;;;;;;;;;;;;;;;22.17;25.13;97105.44;5077699;28;885;-82
2023/02/25 05:14:16;;;;;;;;;;;;;;;22.31;24.64;97092.72;5078414;28;1914;-83
2023/02/25 05:16:41;;;;;;;;;;;;;;;21.78;25.15;97090.88;5078441;28;921;-83
2023/02/25 05:19:06;;;;;;;;;;;;;;;21.72;25.70;97092.75;5078536;28;868;-83
2023/02/25 05:21:32;;;;;;;;;;;;;;;21.72;25.46;97098.41;5078358;28;838;-82
2023/02/25 05:23:57;;;;;;;;;;;;;;;22.01;25.10;97097.22;5078157;28;871;-83
2023/02/25 05:26:23;;;;;;;;;;;;;;;22.23;24.75;97103.59;5078472;28;814;-84
2023/02/25 05:28:49;;;;;;;;;;;;;;;22.35;24.60;97088.47;5076929;28;829;-83
2023/02/25 05:31:15;;;;;;;;;;;;;;;21.77;25.37;97094.19;5077141;28;798;-83
2023/02/25 05:33:41;;;;;;;;;;;;;;;21.68;25.60;97094.94;5077775;28;1910;-83
2023/02/25 05:36:06;;;;;;;;;;;;;;;21.73;25.39;97096.38;5078193;28;831;-82
2023/02/25 05:38:32;;;;;;;;;;;;;;;22.04;25.25;97093.44;5077638;28;739;-83
2023/02/25 05:40:58;;;;;;;;;;;;;;;22.28;24.94;97105.00;5076539;28;856;-83
2023/02/25 05:43:24;;;;;;;;;;;;;;;22.18;24.91;97092.88;5076401;28;864;-82
2023/02/25 05:46:00;;;;;;;;;;;;;;;21.65;25.69;97109.25;5075919;28;853;-85
2023/02/25 05:48:26;;;;;;;;;;;;;;;21.71;25.47;97096.84;5057633;28;1028;-83
2023/02/25 05:50:57;;;;;;;;;;;;;;;21.47;26.21;97095.81;5075545;28;989;-82
2023/02/25 05:53:23;;;;;;;;;;;;;;;21.97;25.30;97093.75;5058306;28;1996;-83
2023/02/25 05:55:49;;;;;;;;;;;;;;;21.95;25.29;97093.44;5075234;28;942;-83
2023/02/25 05:58:14;;;;;;;;;;;;;;;22.10;25.37;97094.41;5025097;28;1017;-83
2023/02/25 06:00:39;;;;;;;;;;;;;;;21.61;25.62;97086.75;5075256;28;850;-83
2023/02/25 06:03:05;;;;;;;;;;;;;;;21.60;26.05;97102.13;5074790;28;968;-82
2023/02/25 06:05:30;;;;;;;;;;;;;;;21.55;25.75;97099.91;5075127;28;731;-84
2023/02/25 06:07:56;;;;;;;;;;;;;;;21.73;25.54;97094.31;5041424;28;1087;-82
2023/02/25 06:10:22;;;;;;;;;;;;;;;21.94;25.58;97098.31;5074632;28;1020;-83
2023/02/25 06:12:47;;;;;;;;;;;;;;;22.25;24.94;97101.06;5058438;28;1987;-83
2023/02/25 06:15:13;;;;;;;;;;;;;;;21.66;25.51;97100.31;5024834;28;958;-83
2023/02/25 06:17:39;;;;;;;;;;;;;;;21.65;25.66;97106.41;5074786;28;876;-83
2023/02/25 06:20:05;;;;;;;;;;;;;;;21.63;25.74;97106.88;5076047;28;982;-84
2023/02/25 06:22:30;;;;;;;;;;;;;;;22.00;25.30;97104.13;5076942;28;787;-82
2023/02/25 06:24:55;;;;;;;;;;;;;;;21.89;25.40;97101.75;5076223;28;818;-83
2023/02/25 06:27:21;;;;;;;;;;;;;;;22.30;25.18;97106.09;5075883;28;860;-83
2023/02/25 06:29:47;;;;;;;;;;;;;;;21.91;25.21;97104.13;5075988;28;940;-84
2023/02/25 06:32:12;;;;;;;;;;;;;;;21.85;25.33;97101.91;5076831;28;834;-83
2023/02/25 06:34:38;;;;;;;;;;;;;;;21.64;25.40;97102.00;5077267;28;1898;-83
2023/02/25 06:37:03;;;;;;;;;;;;;;;21.93;25.77;97104.44;5075641;28;849;-83
2023/02/25 06:39:29;;;;;;;;;;;;;;;21.79;25.76;97103.78;5076192;28;849;-83
2023/02/25 06:41:54;;;;;;;;;;;;;;;22.15;25.24;97105.13;5058454;28;869;-84
2023/02/25 06:44:19;;;;;;;;;;;;;;;22.45;24.97;97105.47;5075181;28;970;-83
2023/02/25 06:46:45;;;;;;;;;;;;;;;21.92;25.27;97112.16;5076268;28;933;-84
2023/02/25 06:49:11;;;;;;;;;;;;;;;21.62;25.93;97104.53;5075090;28;787;-84
2023/02/25 06:51:37;;;;;;;;;;;;;;;21.63;25.89;97106.88;5058663;28;1228;-83
2023/02/25 06:54:02;;;;;;;;;;;;;;;21.93;25.79;97108.06;5076473;28;1898;-83
2023/02/25 06:56:29;;;;;;;;;;;;;;;22.22;25.46;97112.53;5075916;28;1098;-83
2023/02/25 06:58:55;;;;;;;;;;;;;;;21.95;25.39;97096.25;5076105;28;751;-83
2023/02/25 07:01:21;;;;;;;;;;;;;;;21.93;25.54;97101.63;5074700;28;1337;-83
2023/02/25 07:03:46;;;;;;;;;;;;;;;21.67;26.05;97110.38;5076201;28;876;-82
2023/02/25 07:06:14;;;;;;;;;;;;;;;21.62;26.23;97102.47;5075038;28;1174;-82
2023/02/25 07:08:40;;;;;;;;;;;;;;;22.00;25.45;97107.75;5075585;28;860;-81
2023/02/25 07:11:12;;;;;;;;;;;;;;;22.21;25.31;97117.41;5076203;28;855;-82
2023/02/25 07:13:37;;;;;;;;;;;;;;;22.29;25.20;97115.88;5075108;28;1966;-81
2023/02/25 07:16:02;;;;;;;;;;;;;;;21.92;25.79;97119.88;5076020;28;859;-82
2023/02/25 07:18:28;;;;;;;;;;;;;;;21.76;25.69;97118.06;5075047;28;733;-81
2023/02/25 07:20:53;;;;;;;;;;;;;;;21.66;26.34;97099.47;5076028;28;736;-82
2023/02/25 07:23:19;;;;;;;;;;;;;;;22.02;25.66;97116.59;5075661;28;882;-81
2023/02/25 07:25:45;;;;;;;;;;;;;;;22.33;25.05;97116.50;5076316;28;936;-80
2023/02/25 07:28:10;;;;;;;;;;;;;;;22.24;25.37;97108.00;5074639;28;857;-82
2023/02/25 07:30:36;;;;;;;;;;;;;;;21.63;25.89;97103.25;5058652;28;1300;-82
2023/02/25 07:33:01;;;;;;;;;;;;;;;21.65;26.28;97098.69;5075499;28;1897;-82
2023/02/25 07:35:27;;;;;;;;;;;;;;;21.59;26.62;97097.75;5076082;28;1671;-82
2023/02/25 07:37:52;;;;;;;;;;;;;;;21.91;25.94;97104.13;5075642;28;1519;-82
2023/02/25 07:40:18;;;;;;;;;;;;;;;22.15;25.65;97090.97;5075922;28;1176;-82
2023/02/25 07:42:44;;;;;;;;;;;;;;;22.19;25.44;97091.63;5075864;28;1469;-82
2023/02/25 07:45:10;;;;;;;;;;;;;;;21.53;26.54;97088.28;5074808;28;1258;-82
2023/02/25 07:47:36;;;;;;;;;;;;;;;21.66;26.22;97088.97;5074665;28;1473;-83
2023/02/25 07:50:02;;;;;;;;;;;;;;;21.55;26.51;97085.78;5074860;28;1330;-82
2023/02/25 07:52:28;;;;;;;;;;;;;;;22.07;25.87;97084.00;5075320;28;1906;-82
2023/02/25 07:54:53;;;;;;;;;;;;;;;22.17;25.31;97094.09;5076246;28;1305;-82
2023/02/25 07:57:18;;;;;;;;;;;;;;;22.28;25.18;97085.16;5057597;28;763;-82
2023/02/25 07:59:44;;;;;;;;;;;;;;;21.84;25.83;97093.88;5077507;28;954;-82
2023/02/25 08:02:10;;;;;;;;;;;;;;;21.90;25.78;97079.88;5079593;28;872;-82
2023/02/25 08:04:35;;;;;;;;;;;;;;;21.58;26.11;97087.69;5079266;28;857;-82
2023/02/25 08:07:01;;;;;;;;;;;;;;;22.01;25.68;97080.22;5112425;28;1138;-82
2023/02/25 08:09:26;;;;;;;;;;;;;;;22.12;25.60;97086.22;5078835;28;1536;-82
2023/02/25 08:11:52;;;;;;;;;;;;;;;22.21;25.29;97082.63;5062187;28;1250;-82
2023/02/25 08:14:18;;;;;;;;;;;;;;;21.89;25.82;97083.97;5094938;28;1905;-82
2023/02/25 08:16:43;;;;;;;;;;;;;;;21.72;26.03;97070.09;5078022;28;887;-83
2023/02/25 08:19:08;;;;;;;;;;;;;;;21.88;25.94;97076.75;5079276;28;910;-82
2023/02/25 08:21:34;;;;;;;;;;;;;;;22.16;25.50;97078.38;5079643;28;1187;-81
2023/02/25 08:23:59;;;;;;;;;;;;;;;22.04;25.75;97065.91;5111886;28;956;-82
2023/02/25 08:26:26;;;;;;;;;;;;;;;22.02;25.61;97064.78;5078943;28;913;-82
2023/02/25 08:28:51;;;;;;;;;;;;;;;22.01;25.55;97052.69;5078808;28;775;-82
2023/02/25 08:31:17;;;;;;;;;;;;;;;21.41;26.37;97052.41;5111947;28;797;-82
2023/02/25 08:33:43;;;;;;;;;;;;;;;22.00;25.94;97044.66;5077720;28;1971;-82
2023/02/25 08:36:10;;;;;;;;;;;;;;;22.07;25.51;97033.81;5112099;28;931;-82
2023/02/25 08:38:36;;;;;;;;;;;;;;;22.05;25.69;97033.47;5078889;28;725;-82
2023/02/25 08:41:01;;;;;;;;;;;;;;;22.16;25.53;97026.59;5078829;28;945;-82
2023/02/25 08:43:27;;;;;;;;;;;;;;;21.95;25.75;97037.56;5110872;28;915;-82
2023/02/25 08:45:55;;;;;;;;;;;;;;;21.84;25.87;97038.03;5078906;28;868;-82
2023/02/25 08:48:22;;;;;;;;;;;;;;;21.67;26.04;97039.59;5078227;28;1171;-82
2023/02/25 08:50:47;;;;;;;;;;;;;;;21.74;26.05;97036.44;5111538;28;829;-82
2023/02/25 08:53:13;;;;;;;;;;;;;;;22.07;25.65;97024.50;5078677;28;1906;-82
2023/02/25 08:55:38;;;;;;;;;;;;;;;22.08;25.55;97012.72;5111164;28;943;-83
2023/02/25 08:58:04;;;;;;;;;;;;;;;22.24;25.76;97020.16;5078568;28;892;-81
2023/02/25 09:00:30;;;;;;;;;;;;;;;21.94;26.00;97013.34;5078368;28;923;-83
2023/02/25 09:02:55;;;;;;;;;;;;;;;21.77;26.28;97009.25;5078702;28;863;-83
2023/02/25 09:05:23;;;;;;;;;;;;;;;21.74;26.09;97013.78;5077843;28;1592;-83
2023/02/25 09:07:48;;;;;;;;;;;;;;;21.77;26.39;97010.03;5110514;28;1058;-83
2023/02/25 09:10:14;;;;;;;;;;;;;;;22.17;25.46;97003.44;5078238;28;850;-83
2023/02/25 09:12:41;;;;;;;;;;;;;;;22.13;25.53;96985.06;5078309;28;1974;-83
2023/02/25 09:15:06;;;;;;;;;;;;;;;22.00;25.50;96977.47;5078671;28;858;-83
2023/02/25 09:17:32;;;;;;;;;;;;;;;21.77;26.04;96973.22;5110700;28;905;-83
2023/02/25 09:20:00;;;;;;;;;;;;;;;21.59;26.21;96964.69;5078507;28;907;-83
2023/02/25 09:22:25;;;;;;;;;;;;;;;22.02;25.71;96968.47;5078289;28;770;-83
2023/02/25 09:24:51;;;;;;;;;;;;;;;22.11;25.63;96954.34;5076993;28;729;-83
2023/02/25 09:27:16;;;;;;;;;;;;;;;22.12;25.43;96961.56;5078288;28;886;-83
2023/02/25 09:29:42;;;;;;;;;;;;;;;21.75;25.92;96958.72;5110581;28;883;-83
2023/02/25 09:32:07;;;;;;;;;;;;;;;21.55;26.30;96956.38;5078098;28;866;-83
2023/02/25 09:34:33;;;;;;;;;;;;;;;21.80;26.17;96963.75;5076885;28;1914;-83
2023/02/25 09:37:05;;;;;;;;;;;;;;;22.01;25.89;96955.59;5093604;28;864;-83
2023/02/25 09:39:30;;;;;;;;;;;;;;;22.09;25.75;96963.28;5077580;28;874;-82
2023/02/25 09:41:59;;;;;;;;;;;;;;;22.01;25.55;96955.59;5110607;28;838;-83
2023/02/25 09:44:26;;;;;;;;;;;;;;;21.74;25.93;96948.66;5076572;28;947;-83
2023/02/25 09:47:10;;;;;;;;;;;;;;;21.75;26.09;96936.06;5078160;28;1021;-83
2023/02/25 09:49:37;;;;;;;;;;;;;;;22.00;25.88;96945.50;5077675;28;806;-83
2023/02/25 09:52:22;;;;;;;;;;;;;;;22.22;25.58;96937.66;5077606;28;908;-81
2023/02/25 09:54:55;;;;;;;;;;;;;;;22.19;25.58;96932.94;5077633;28;1977;-81
2023/02/25 09:57:22;;;;;;;;;;;;;;;21.70;26.03;96928.22;5110298;28;797;-81
2023/02/25 09:59:48;;;;;;;;;;;;;;;21.73;26.31;96918.00;5076338;28;893;-81
2023/02/25 10:02:21;;;;;;;;;;;;;;;21.60;26.21;96920.97;5110279;28;967;-81
2023/02/25 10:04:51;;;;;;;;;;;;;;;21.88;26.15;96921.00;5109898;28;835;-80
2023/02/25 10:07:21;;;;;;;;;;;;;;;21.93;25.99;96909.03;5109498;28;1109;-81
2023/02/25 10:09:51;;;;;;;;;;;;;;;22.16;25.57;96905.53;5109687;28;871;-81
2023/02/25 10:12:20;;;;;;;;;;;;;;;21.98;25.94;96912.00;5077302;28;834;-81
2023/02/25 10:14:55;;;;;;;;;;;;;;;21.76;25.91;96909.34;5110295;28;1989;-81
2023/02/25 10:17:26;;;;;;;;;;;;;;;21.71;26.07;96926.97;5090516;28;1896;-81
2023/02/25 10:20:17;;;;;;;;;;;;;;;21.97;25.72;96912.50;5056708;28;1598;-80
2023/02/25 10:23:01;;;;;;;;;;;;;;;21.99;26.07;96918.47;5073553;28;983;-81
2023/02/25 10:25:27;;;;;;;;;;;;;;;22.14;25.69;96902.41;5074489;28;1033;-81
2023/02/25 10:27:53;;;;;;;;;;;;;;;21.71;26.21;96881.69;5074314;28;918;-81
2023/02/25 10:30:22;;;;;;;;;;;;;;;21.78;26.05;96886.22;5074410;28;968;-81
2023/02/25 10:32:47;;;;;;;;;;;;;;;21.68;26.22;96876.94;5074327;28;1978;-81
2023/02/25 10:35:28;;;;;;;;;;;;;;;22.03;25.84;96873.78;5074503;28;803;-82
2023/02/25 10:37:53;;;;;;;;;;;;;;;22.12;25.83;96881.47;5057955;28;1094;-82
2023/02/25 10:40:20;;;;;;;;;;;;;;;21.96;25.73;96871.25;5074340;28;1064;-82
2023/02/25 10:42:47;;;;;;;;;;;;;;;21.82;26.18;96864.22;5074137;28;903;-82
2023/02/25 10:45:15;;;;;;;;;;;;;;;21.79;26.03;96865.94;5074261;28;836;-82
2023/02/25 10:47:41;;;;;;;;;;;;;;;21.77;26.03;96857.13;5074262;28;933;-82
2023/02/25 10:50:11;;;;;;;;;;;;;;;22.11;25.71;96858.03;5074173;28;903;-82
2023/02/25 10:52:49;;;;;;;;;;;;;;;22.27;25.53;96854.81;5074197;28;1987;-83
2023/02/25 10:55:23;;;;;;;;;;;;;;;21.79;26.11;96851.78;5074018;28;1023;-82
2023/02/25 10:57:49;;;;;;;;;;;;;;;21.77;26.08;96851.47;5073887;28;1107;-82
2023/02/25 11:00:22;;;;;;;;;;;;;;;21.84;25.90;96858.84;5060353;28;1021;-82
2023/02/25 11:02:48;;;;;;;;;;;;;;;21.93;26.17;96852.38;5088878;28;822;-82
2023/02/25 11:05:28;;;;;;;;;;;;;;;22.10;25.86;96856.44;5088558;28;896;-82
2023/02/25 11:07:55;;;;;;;;;;;;;;;21.86;25.93;96861.97;5056372;28;1198;-82
2023/02/25 11:10:21;;;;;;;;;;;;;;;21.66;26.30;96854.00;5055457;28;975;-82
2023/02/25 11:12:47;;;;;;;;;;;;;;;21.63;26.41;96848.50;5072195;28;1922;-82
2023/02/25 11:15:22;;;;;;;;;;;;;;;21.91;26.10;96843.56;5087399;28;919;-82
2023/02/25 11:17:48;;;;;;;;;;;;;;;22.36;25.31;96837.00;5054944;28;962;-82
2023/02/25 11:20:20;;;;;;;;;;;;;;;22.30;25.59;96825.53;5055844;28;923;-81
2023/02/25 11:22:45;;;;;;;;;;;;;;;21.83;25.93;96815.59;5088750;28;813;-82
2023/02/25 11:25:15;;;;;;;;;;;;;;;21.83;26.29;96821.25;5097214;28;1309;-82
2023/02/25 11:27:40;;;;;;;;;;;;;;;21.79;26.00;96803.63;5076190;28;1256;-83
2023/02/25 11:30:07;;;;;;;;;;;;;;;22.15;25.51;96810.50;5074538;28;1569;-83
2023/02/25 11:32:32;;;;;;;;;;;;;;;22.41;25.41;96813.69;5074772;28;1910;-82
2023/02/25 11:35:04;;;;;;;;;;;;;;;22.19;25.63;96813.94;5058663;28;1389;-83
2023/02/25 11:37:29;;;;;;;;;;;;;;;22.30;25.26;96817.03;5061386;28;952;-83
2023/02/25 11:39:55;;;;;;;;;;;;;;;21.79;26.20;96797.97;5076911;28;1091;-83
2023/02/25 11:42:22;;;;;;;;;;;;;;;21.74;26.40;96804.28;5078000;28;937;-83
2023/02/25 11:44:47;;;;;;;;;;;;;;;21.69;26.17;96804.91;5060801;28;1554;-83
2023/02/25 11:47:15;;;;;;;;;;;;;;;21.61;26.45;96798.03;5077549;28;731;-83
2023/02/25 11:49:59;;;;;;;;;;;;;;;21.99;25.96;96808.00;5061353;28;986;-83
2023/02/25 11:52:27;;;;;;;;;;;;;;;21.98;26.08;96797.94;5077346;28;1041;-83
2023/02/25 11:55:02;;;;;;;;;;;;;;;21.99;25.79;96805.16;5077091;28;1984;-84
2023/02/25 11:57:27;;;;;;;;;;;;;;;21.78;26.26;96790.75;5077529;28;926;-82
2023/02/25 12:00:11;;;;;;;;;;;;;;;21.79;26.18;96792.31;5077298;28;960;-83
2023/02/25 12:02:39;;;;;;;;;;;;;;;21.68;26.61;96785.56;5077285;28;883;-83
2023/02/25 12:05:08;;;;;;;;;;;;;;;22.19;25.68;96787.66;5077904;28;950;-83
2023/02/25 12:07:33;;;;;;;;;;;;;;;22.04;26.01;96796.03;5112051;28;1066;-84
2023/02/25 12:10:17;;;;;;;;;;;;;;;21.99;25.85;96774.78;5079829;28;835;-83
2023/02/25 12:12:45;;;;;;;;;;;;;;;21.92;25.91;96808.34;5079214;28;1899;-83
2023/02/25 12:15:22;;;;;;;;;;;;;;;21.79;26.14;96778.16;5078773;28;871;-83
2023/02/25 12:18:00;;;;;;;;;;;;;;;21.62;26.44;96791.09;5094698;28;846;-83
2023/02/25 12:20:44;;;;;;;;;;;;;;;22.03;25.82;96783.13;5078205;28;706;-83
2023/02/25 12:23:10;;;;;;;;;;;;;;;22.24;25.69;96776.47;5079704;28;953;-83
2023/02/25 12:25:54;;;;;;;;;;;;;;;21.98;25.75;96775.28;5077887;28;1410;-83
2023/02/25 12:28:28;;;;;;;;;;;;;;;21.76;26.11;96787.63;5111614;28;937;-83
2023/02/25 12:31:23;;;;;;;;;;;;;;;21.82;26.22;96780.03;5079079;28;853;-83
2023/02/25 12:33:51;;;;;;;;;;;;;;;21.71;26.33;96767.63;5080001;28;1906;-83
2023/02/25 12:36:25;;;;;;;;;;;;;;;22.15;25.49;96762.31;5097052;28;960;-83
2023/02/25 12:38:50;;;;;;;;;;;;;;;22.21;25.62;96757.56;5080059;28;1001;-82
2023/02/25 12:41:24;;;;;;;;;;;;;;;22.00;25.81;96761.41;5080261;28;898;-83
2023/02/25 12:43:51;;;;;;;;;;;;;;;21.84;26.29;96754.06;5079963;28;1406;-83
2023/02/25 12:46:23;;;;;;;;;;;;;;;21.39;26.73;96757.78;5062468;28;853;-82
2023/02/25 12:48:58;;;;;;;;;;;;;;;21.73;26.33;96748.91;5046625;28;987;-83
2023/02/25 12:51:38;;;;;;;;;;;;;;;22.01;25.73;96762.97;5096450;28;1074;-83
2023/02/25 12:54:22;;;;;;;;;;;;;;;22.16;25.59;96752.56;5096573;28;1910;-83
2023/02/25 12:57:02;;;;;;;;;;;;;;;21.65;26.61;96753.31;5096816;28;986;-83
2023/02/25 12:59:27;;;;;;;;;;;;;;;21.77;26.22;96752.38;5062716;28;1227;-83
2023/02/25 13:02:02;;;;;;;;;;;;;;;22.00;25.77;96750.88;5079693;28;1422;-83
2023/02/25 13:04:44;;;;;;;;;;;;;;;21.99;25.82;96759.84;5079370;28;1327;-82
2023/02/25 13:07:16;;;;;;;;;;;;;;;22.24;25.79;96753.00;5036351;28;1162;-83